sensor_id;sensor_type;location;lat;lon;timestamp;pressure;altitude;pressure_sealevel;temperature;humidity
55070;BME280;40967;52.070;8.596;2023-06-14T00:01:01;100452.75;;;18.85;41.14
55070;BME280;40967;52.070;8.596;2023-06-14T00:03:28;100462.44;;;18.82;41.32
55070;BME280;40967;52.070;8.596;2023-06-14T00:05:54;100461.16;;;18.80;41.35
55070;BME280;40967;52.070;8.596;2023-06-14T00:08:19;100459.38;;;18.75;41.57
55070;BME280;40967;52.070;8.596;2023-06-14T00:10:46;100459.06;;;18.68;41.69
55070;BME280;40967;52.070;8.596;2023-06-14T00:13:12;100451.94;;;18.67;41.79
55070;BME280;40967;52.070;8.596;2023-06-14T00:15:38;100463.59;;;18.64;41.83
55070;BME280;40967;52.070;8.596;2023-06-14T00:18:04;100469.72;;;18.61;42.17
55070;BME280;40967;52.070;8.596;2023-06-14T00:20:31;100460.81;;;18.56;42.37
55070;BME280;40967;52.070;8.596;2023-06-14T00:22:58;100468.28;;;18.55;42.29
55070;BME280;40967;52.070;8.596;2023-06-14T00:25:24;100477.66;;;18.54;42.54
55070;BME280;40967;52.070;8.596;2023-06-14T00:27:53;100466.81;;;18.49;42.59
55070;BME280;40967;52.070;8.596;2023-06-14T00:30:19;100477.81;;;18.49;42.36
55070;BME280;40967;52.070;8.596;2023-06-14T00:32:45;100473.78;;;18.47;42.65
55070;BME280;40967;52.070;8.596;2023-06-14T00:35:11;100479.91;;;18.44;42.58
55070;BME280;40967;52.070;8.596;2023-06-14T00:37:37;100486.03;;;18.41;42.54
55070;BME280;40967;52.070;8.596;2023-06-14T00:40:03;100484.41;;;18.40;42.66
55070;BME280;40967;52.070;8.596;2023-06-14T00:42:29;100484.75;;;18.38;42.92
55070;BME280;40967;52.070;8.596;2023-06-14T00:44:58;100484.25;;;18.36;43.24
55070;BME280;40967;52.070;8.596;2023-06-14T00:47:23;100487.31;;;18.35;43.54
55070;BME280;40967;52.070;8.596;2023-06-14T00:49:53;100496.19;;;18.32;43.87
55070;BME280;40967;52.070;8.596;2023-06-14T00:52:20;100477.91;;;18.19;44.01
55070;BME280;40967;52.070;8.596;2023-06-14T00:54:45;100490.00;;;18.17;44.54
55070;BME280;40967;52.070;8.596;2023-06-14T00:57:12;100484.69;;;18.12;44.45
55070;BME280;40967;52.070;8.596;2023-06-14T00:59:42;100485.00;;;18.11;44.72
55070;BME280;40967;52.070;8.596;2023-06-14T01:02:08;100486.13;;;18.01;45.02
55070;BME280;40967;52.070;8.596;2023-06-14T01:04:33;100487.53;;;17.90;45.27
55070;BME280;40967;52.070;8.596;2023-06-14T01:07:07;100490.09;;;17.78;45.18
55070;BME280;40967;52.070;8.596;2023-06-14T01:15:31;100486.59;;;17.56;45.96
55070;BME280;40967;52.070;8.596;2023-06-14T01:17:57;100486.44;;;17.52;45.99
55070;BME280;40967;52.070;8.596;2023-06-14T01:20:29;100484.66;;;17.48;46.20
55070;BME280;40967;52.070;8.596;2023-06-14T01:22:56;100486.69;;;17.42;46.42
55070;BME280;40967;52.070;8.596;2023-06-14T01:25:21;100497.28;;;17.35;46.61
55070;BME280;40967;52.070;8.596;2023-06-14T01:27:53;100499.66;;;17.28;46.77
55070;BME280;40967;52.070;8.596;2023-06-14T01:30:20;100492.38;;;17.24;46.90
55070;BME280;40967;52.070;8.596;2023-06-14T01:32:49;100495.56;;;17.17;46.86
55070;BME280;40967;52.070;8.596;2023-06-14T01:35:16;100495.88;;;17.16;47.11
55070;BME280;40967;52.070;8.596;2023-06-14T01:37:42;100497.00;;;17.15;47.24
55070;BME280;40967;52.070;8.596;2023-06-14T01:40:10;100497.56;;;17.03;47.62
55070;BME280;40967;52.070;8.596;2023-06-14T01:42:37;100503.00;;;16.94;47.67
55070;BME280;40967;52.070;8.596;2023-06-14T01:45:06;100501.19;;;16.90;48.04
55070;BME280;40967;52.070;8.596;2023-06-14T01:47:32;100493.81;;;16.77;48.31
55070;BME280;40967;52.070;8.596;2023-06-14T01:49:59;100499.88;;;16.65;48.71
55070;BME280;40967;52.070;8.596;2023-06-14T01:52:27;100506.19;;;16.52;49.27
55070;BME280;40967;52.070;8.596;2023-06-14T01:54:56;100502.97;;;16.50;49.41
55070;BME280;40967;52.070;8.596;2023-06-14T01:57:23;100511.78;;;16.47;49.33
55070;BME280;40967;52.070;8.596;2023-06-14T01:59:50;100501.13;;;16.46;49.44
55070;BME280;40967;52.070;8.596;2023-06-14T02:02:16;100509.44;;;16.41;49.65
55070;BME280;40967;52.070;8.596;2023-06-14T02:04:44;100509.75;;;16.39;49.60
55070;BME280;40967;52.070;8.596;2023-06-14T02:07:14;100519.69;;;16.35;49.73
55070;BME280;40967;52.070;8.596;2023-06-14T02:09:40;100517.88;;;16.31;49.77
55070;BME280;40967;52.070;8.596;2023-06-14T02:12:06;100521.84;;;16.25;50.25
55070;BME280;40967;52.070;8.596;2023-06-14T02:14:34;100511.94;;;16.15;50.76
55070;BME280;40967;52.070;8.596;2023-06-14T02:17:00;100526.22;;;15.99;51.19
55070;BME280;40967;52.070;8.596;2023-06-14T02:19:26;100518.31;;;15.97;51.04
55070;BME280;40967;52.070;8.596;2023-06-14T02:21:51;100524.63;;;15.98;51.20
55070;BME280;40967;52.070;8.596;2023-06-14T02:24:17;100527.34;;;15.98;51.03
55070;BME280;40967;52.070;8.596;2023-06-14T02:26:42;100529.47;;;16.01;50.77
55070;BME280;40967;52.070;8.596;2023-06-14T02:29:07;100528.38;;;16.02;50.63
55070;BME280;40967;52.070;8.596;2023-06-14T02:31:38;100529.97;;;16.03;50.46
55070;BME280;40967;52.070;8.596;2023-06-14T02:34:03;100539.31;;;16.02;50.51
55070;BME280;40967;52.070;8.596;2023-06-14T02:36:29;100534.44;;;15.99;50.62
55070;BME280;40967;52.070;8.596;2023-06-14T02:38:55;100528.75;;;15.95;50.54
55070;BME280;40967;52.070;8.596;2023-06-14T02:41:23;100537.91;;;15.90;50.69
55070;BME280;40967;52.070;8.596;2023-06-14T02:43:48;100539.03;;;15.89;50.48
55070;BME280;40967;52.070;8.596;2023-06-14T02:46:13;100536.88;;;15.86;50.50
55070;BME280;40967;52.070;8.596;2023-06-14T02:48:40;100538.00;;;15.85;50.78
55070;BME280;40967;52.070;8.596;2023-06-14T02:51:05;100535.88;;;15.82;50.82
55070;BME280;40967;52.070;8.596;2023-06-14T02:53:31;100531.81;;;15.80;50.88
55070;BME280;40967;52.070;8.596;2023-06-14T02:55:56;100531.59;;;15.76;50.88
55070;BME280;40967;52.070;8.596;2023-06-14T02:58:21;100532.44;;;15.77;50.97
55070;BME280;40967;52.070;8.596;2023-06-14T03:00:50;100533.31;;;15.72;50.97
55070;BME280;40967;52.070;8.596;2023-06-14T03:03:17;100538.38;;;15.65;51.07
55070;BME280;40967;52.070;8.596;2023-06-14T03:05:44;100535.84;;;15.55;51.46
55070;BME280;40967;52.070;8.596;2023-06-14T03:08:17;100543.03;;;15.51;51.81
55070;BME280;40967;52.070;8.596;2023-06-14T03:10:47;100541.19;;;15.47;51.55
55070;BME280;40967;52.070;8.596;2023-06-14T03:13:14;100551.63;;;15.45;52.09
55070;BME280;40967;52.070;8.596;2023-06-14T03:15:41;100552.22;;;15.42;52.21
55070;BME280;40967;52.070;8.596;2023-06-14T03:18:09;100550.38;;;15.37;52.52
55070;BME280;40967;52.070;8.596;2023-06-14T03:20:35;100549.56;;;15.37;52.86
55070;BME280;40967;52.070;8.596;2023-06-14T03:23:02;100542.25;;;15.32;52.92
55070;BME280;40967;52.070;8.596;2023-06-14T03:25:28;100544.56;;;15.25;52.71
55070;BME280;40967;52.070;8.596;2023-06-14T03:28:01;100545.34;;;15.26;53.50
55070;BME280;40967;52.070;8.596;2023-06-14T03:30:26;100544.84;;;15.24;53.62
55070;BME280;40967;52.070;8.596;2023-06-14T03:32:52;100544.66;;;15.20;53.77
55070;BME280;40967;52.070;8.596;2023-06-14T03:35:18;100547.88;;;15.22;53.97
55070;BME280;40967;52.070;8.596;2023-06-14T03:37:44;100548.69;;;15.23;53.86
55070;BME280;40967;52.070;8.596;2023-06-14T03:40:12;100556.59;;;15.24;54.29
55070;BME280;40967;52.070;8.596;2023-06-14T03:42:37;100560.16;;;15.25;54.38
55070;BME280;40967;52.070;8.596;2023-06-14T03:45:03;100566.72;;;15.24;54.56
55070;BME280;40967;52.070;8.596;2023-06-14T03:47:29;100559.41;;;15.19;54.58
55070;BME280;40967;52.070;8.596;2023-06-14T03:49:54;100571.78;;;15.17;54.88
55070;BME280;40967;52.070;8.596;2023-06-14T03:52:20;100573.47;;;15.13;55.15
55070;BME280;40967;52.070;8.596;2023-06-14T03:54:47;100574.06;;;15.10;55.33
55070;BME280;40967;52.070;8.596;2023-06-14T03:57:12;100582.06;;;15.06;55.53
55070;BME280;40967;52.070;8.596;2023-06-14T03:59:38;100579.59;;;15.05;55.78
55070;BME280;40967;52.070;8.596;2023-06-14T04:02:03;100571.69;;;15.03;55.96
55070;BME280;40967;52.070;8.596;2023-06-14T04:04:29;100584.28;;;15.04;55.72
55070;BME280;40967;52.070;8.596;2023-06-14T04:06:56;100585.56;;;15.07;55.87
55070;BME280;40967;52.070;8.596;2023-06-14T04:09:24;100589.94;;;15.08;55.63
55070;BME280;40967;52.070;8.596;2023-06-14T04:11:51;100591.03;;;15.07;55.75
55070;BME280;40967;52.070;8.596;2023-06-14T04:14:23;100595.63;;;15.11;55.66
55070;BME280;40967;52.070;8.596;2023-06-14T04:16:49;100590.69;;;15.13;55.57
55070;BME280;40967;52.070;8.596;2023-06-14T04:19:15;100591.69;;;15.17;55.69
55070;BME280;40967;52.070;8.596;2023-06-14T04:21:44;100600.13;;;15.21;55.65
55070;BME280;40967;52.070;8.596;2023-06-14T04:24:09;100599.50;;;15.24;55.61
55070;BME280;40967;52.070;8.596;2023-06-14T04:26:42;100607.66;;;15.29;55.60
55070;BME280;40967;52.070;8.596;2023-06-14T04:29:12;100604.63;;;15.30;55.55
55070;BME280;40967;52.070;8.596;2023-06-14T04:31:45;100610.53;;;15.37;55.42
55070;BME280;40967;52.070;8.596;2023-06-14T04:34:11;100606.38;;;15.40;55.44
55070;BME280;40967;52.070;8.596;2023-06-14T04:36:41;100612.28;;;15.47;55.21
55070;BME280;40967;52.070;8.596;2023-06-14T04:39:17;100619.88;;;15.50;55.16
55070;BME280;40967;52.070;8.596;2023-06-14T04:41:43;100621.75;;;15.54;54.93
55070;BME280;40967;52.070;8.596;2023-06-14T04:44:09;100608.88;;;15.55;55.28
55070;BME280;40967;52.070;8.596;2023-06-14T04:46:35;100623.78;;;15.62;55.24
55070;BME280;40967;52.070;8.596;2023-06-14T04:49:09;100629.16;;;15.67;55.33
55070;BME280;40967;52.070;8.596;2023-06-14T04:51:35;100631.59;;;15.69;55.53
55070;BME280;40967;52.070;8.596;2023-06-14T04:54:05;100631.22;;;15.75;55.33
55070;BME280;40967;52.070;8.596;2023-06-14T04:56:35;100638.00;;;15.78;55.29
55070;BME280;40967;52.070;8.596;2023-06-14T04:59:02;100642.88;;;15.81;55.38
55070;BME280;40967;52.070;8.596;2023-06-14T05:01:30;100650.19;;;15.85;55.17
55070;BME280;40967;52.070;8.596;2023-06-14T05:03:56;100645.84;;;15.84;55.36
55070;BME280;40967;52.070;8.596;2023-06-14T05:06:21;100649.56;;;15.88;55.39
55070;BME280;40967;52.070;8.596;2023-06-14T05:08:47;100646.22;;;15.91;55.14
55070;BME280;40967;52.070;8.596;2023-06-14T05:11:12;100647.78;;;15.98;55.16
55070;BME280;40967;52.070;8.596;2023-06-14T05:13:38;100651.22;;;16.03;55.01
55070;BME280;40967;52.070;8.596;2023-06-14T05:16:05;100655.28;;;16.06;55.03
55070;BME280;40967;52.070;8.596;2023-06-14T05:18:31;100660.66;;;16.11;55.01
55070;BME280;40967;52.070;8.596;2023-06-14T05:20:59;100654.28;;;16.15;55.12
55070;BME280;40967;52.070;8.596;2023-06-14T05:23:25;100647.38;;;16.18;55.33
55070;BME280;40967;52.070;8.596;2023-06-14T05:25:50;100651.44;;;16.20;55.61
55070;BME280;40967;52.070;8.596;2023-06-14T05:28:15;100643.75;;;16.22;55.52
55070;BME280;40967;52.070;8.596;2023-06-14T05:30:41;100648.28;;;16.27;55.87
55070;BME280;40967;52.070;8.596;2023-06-14T05:33:07;100649.00;;;16.32;55.56
55070;BME280;40967;52.070;8.596;2023-06-14T05:35:32;100648.91;;;16.37;55.83
55070;BME280;40967;52.070;8.596;2023-06-14T05:37:58;100647.50;;;16.40;56.18
55070;BME280;40967;52.070;8.596;2023-06-14T05:40:23;100647.69;;;16.43;56.33
55070;BME280;40967;52.070;8.596;2023-06-14T05:42:49;100644.56;;;16.50;56.47
55070;BME280;40967;52.070;8.596;2023-06-14T05:45:14;100645.59;;;16.54;56.48
55070;BME280;40967;52.070;8.596;2023-06-14T05:47:41;100654.50;;;16.59;56.32
55070;BME280;40967;52.070;8.596;2023-06-14T05:50:07;100659.38;;;16.62;56.28
55070;BME280;40967;52.070;8.596;2023-06-14T05:52:33;100653.78;;;16.67;56.02
55070;BME280;40967;52.070;8.596;2023-06-14T05:54:59;100661.59;;;16.74;55.87
55070;BME280;40967;52.070;8.596;2023-06-14T05:57:25;100666.34;;;16.82;55.76
55070;BME280;40967;52.070;8.596;2023-06-14T05:59:50;100668.50;;;16.85;55.91
55070;BME280;40967;52.070;8.596;2023-06-14T06:02:16;100666.47;;;16.90;55.89
55070;BME280;40967;52.070;8.596;2023-06-14T06:04:42;100659.22;;;16.94;55.06
55070;BME280;40967;52.070;8.596;2023-06-14T06:07:07;100674.22;;;17.11;54.94
55070;BME280;40967;52.070;8.596;2023-06-14T06:09:32;100672.88;;;17.22;54.54
55070;BME280;40967;52.070;8.596;2023-06-14T06:11:58;100679.41;;;17.34;54.01
55070;BME280;40967;52.070;8.596;2023-06-14T06:14:23;100685.47;;;17.45;53.88
55070;BME280;40967;52.070;8.596;2023-06-14T06:16:49;100679.47;;;17.56;52.84
55070;BME280;40967;52.070;8.596;2023-06-14T06:19:14;100683.25;;;17.69;52.65
55070;BME280;40967;52.070;8.596;2023-06-14T06:21:40;100675.56;;;17.79;52.26
55070;BME280;40967;52.070;8.596;2023-06-14T06:24:05;100683.44;;;17.94;52.01
55070;BME280;40967;52.070;8.596;2023-06-14T06:26:31;100679.16;;;18.10;51.67
55070;BME280;40967;52.070;8.596;2023-06-14T06:28:57;100683.94;;;18.27;51.03
55070;BME280;40967;52.070;8.596;2023-06-14T06:31:23;100684.84;;;18.45;50.09
55070;BME280;40967;52.070;8.596;2023-06-14T06:33:49;100687.97;;;18.60;49.83
55070;BME280;40967;52.070;8.596;2023-06-14T06:36:14;100681.03;;;18.71;49.25
55070;BME280;40967;52.070;8.596;2023-06-14T06:38:40;100688.19;;;18.89;48.77
55070;BME280;40967;52.070;8.596;2023-06-14T06:41:05;100683.69;;;19.02;47.83
55070;BME280;40967;52.070;8.596;2023-06-14T06:43:31;100689.72;;;19.12;47.60
55070;BME280;40967;52.070;8.596;2023-06-14T06:45:56;100685.34;;;19.29;47.45
55070;BME280;40967;52.070;8.596;2023-06-14T06:48:22;100688.13;;;19.46;46.95
55070;BME280;40967;52.070;8.596;2023-06-14T06:50:47;100691.19;;;19.61;46.84
55070;BME280;40967;52.070;8.596;2023-06-14T06:53:12;100696.19;;;19.85;46.55
55070;BME280;40967;52.070;8.596;2023-06-14T06:55:38;100693.38;;;20.02;46.16
55070;BME280;40967;52.070;8.596;2023-06-14T06:58:03;100706.31;;;20.27;45.39
55070;BME280;40967;52.070;8.596;2023-06-14T07:00:30;100701.25;;;20.38;45.19
55070;BME280;40967;52.070;8.596;2023-06-14T07:02:55;100707.19;;;20.57;44.62
55070;BME280;40967;52.070;8.596;2023-06-14T07:05:22;100718.41;;;20.81;44.15
55070;BME280;40967;52.070;8.596;2023-06-14T07:07:48;100711.19;;;20.97;43.34
55070;BME280;40967;52.070;8.596;2023-06-14T07:10:13;100711.78;;;21.11;43.17
55070;BME280;40967;52.070;8.596;2023-06-14T07:12:39;100713.81;;;21.22;42.42
55070;BME280;40967;52.070;8.596;2023-06-14T07:15:08;100708.41;;;21.26;42.38
55070;BME280;40967;52.070;8.596;2023-06-14T07:17:34;100708.00;;;21.36;41.86
55070;BME280;40967;52.070;8.596;2023-06-14T07:19:59;100720.00;;;21.40;41.59
55070;BME280;40967;52.070;8.596;2023-06-14T07:22:26;100722.56;;;21.45;41.48
55070;BME280;40967;52.070;8.596;2023-06-14T07:24:51;100719.25;;;21.52;41.30
55070;BME280;40967;52.070;8.596;2023-06-14T07:27:16;100719.19;;;21.60;40.95
55070;BME280;40967;52.070;8.596;2023-06-14T07:29:42;100722.81;;;21.73;40.80
55070;BME280;40967;52.070;8.596;2023-06-14T07:32:07;100727.94;;;21.83;40.50
55070;BME280;40967;52.070;8.596;2023-06-14T07:34:33;100723.97;;;21.92;40.77
55070;BME280;40967;52.070;8.596;2023-06-14T07:36:58;100721.72;;;22.06;40.60
55070;BME280;40967;52.070;8.596;2023-06-14T07:39:23;100724.75;;;22.25;40.70
55070;BME280;40967;52.070;8.596;2023-06-14T07:41:49;100721.22;;;22.49;40.63
55070;BME280;40967;52.070;8.596;2023-06-14T07:44:15;100720.91;;;22.75;40.11
55070;BME280;40967;52.070;8.596;2023-06-14T07:46:41;100720.59;;;22.88;39.50
55070;BME280;40967;52.070;8.596;2023-06-14T07:49:06;100721.84;;;22.91;38.62
55070;BME280;40967;52.070;8.596;2023-06-14T07:51:32;100723.66;;;22.87;38.27
55070;BME280;40967;52.070;8.596;2023-06-14T07:53:59;100720.13;;;22.86;37.90
55070;BME280;40967;52.070;8.596;2023-06-14T07:56:26;100718.25;;;22.90;38.27
55070;BME280;40967;52.070;8.596;2023-06-14T07:58:51;100728.06;;;23.00;38.11
55070;BME280;40967;52.070;8.596;2023-06-14T08:01:17;100721.34;;;23.01;37.71
55070;BME280;40967;52.070;8.596;2023-06-14T08:03:44;100727.44;;;23.18;37.58
55070;BME280;40967;52.070;8.596;2023-06-14T08:06:10;100732.22;;;23.30;36.95
55070;BME280;40967;52.070;8.596;2023-06-14T08:08:35;100726.97;;;23.40;37.11
55070;BME280;40967;52.070;8.596;2023-06-14T08:11:00;100730.06;;;23.51;36.59
55070;BME280;40967;52.070;8.596;2023-06-14T08:13:26;100731.78;;;23.55;36.44
55070;BME280;40967;52.070;8.596;2023-06-14T08:15:51;100725.69;;;23.50;36.47
55070;BME280;40967;52.070;8.596;2023-06-14T08:18:16;100731.13;;;23.46;36.66
55070;BME280;40967;52.070;8.596;2023-06-14T08:20:42;100729.03;;;23.55;36.38
55070;BME280;40967;52.070;8.596;2023-06-14T08:23:10;100736.28;;;23.60;36.71
55070;BME280;40967;52.070;8.596;2023-06-14T08:25:36;100726.34;;;23.59;36.36
55070;BME280;40967;52.070;8.596;2023-06-14T08:28:02;100728.16;;;23.67;36.44
55070;BME280;40967;52.070;8.596;2023-06-14T08:30:27;100732.16;;;23.82;36.42
55070;BME280;40967;52.070;8.596;2023-06-14T08:32:52;100731.03;;;23.98;36.31
55070;BME280;40967;52.070;8.596;2023-06-14T08:35:20;100733.88;;;24.14;36.12
55070;BME280;40967;52.070;8.596;2023-06-14T08:37:46;100729.59;;;24.16;35.82
55070;BME280;40967;52.070;8.596;2023-06-14T08:40:18;100730.75;;;24.15;35.92
55070;BME280;40967;52.070;8.596;2023-06-14T08:42:47;100736.56;;;24.26;36.08
55070;BME280;40967;52.070;8.596;2023-06-14T08:45:12;100726.03;;;24.31;35.95
55070;BME280;40967;52.070;8.596;2023-06-14T08:47:41;100730.78;;;24.46;35.72
55070;BME280;40967;52.070;8.596;2023-06-14T08:50:07;100727.75;;;24.67;35.49
55070;BME280;40967;52.070;8.596;2023-06-14T08:52:38;100732.72;;;24.74;35.62
55070;BME280;40967;52.070;8.596;2023-06-14T08:55:10;100732.53;;;24.82;35.15
55070;BME280;40967;52.070;8.596;2023-06-14T08:57:36;100731.25;;;24.95;35.12
55070;BME280;40967;52.070;8.596;2023-06-14T09:00:03;100739.81;;;25.06;34.67
55070;BME280;40967;52.070;8.596;2023-06-14T09:02:39;100736.75;;;25.11;34.49
55070;BME280;40967;52.070;8.596;2023-06-14T09:05:11;100731.38;;;25.18;34.53
55070;BME280;40967;52.070;8.596;2023-06-14T09:07:41;100739.31;;;25.35;34.48
55070;BME280;40967;52.070;8.596;2023-06-14T09:10:14;100731.81;;;25.54;34.29
55070;BME280;40967;52.070;8.596;2023-06-14T09:12:40;100741.78;;;25.55;34.06
55070;BME280;40967;52.070;8.596;2023-06-14T09:15:06;100738.63;;;25.57;33.67
55070;BME280;40967;52.070;8.596;2023-06-14T09:17:38;100746.41;;;25.67;33.26
55070;BME280;40967;52.070;8.596;2023-06-14T09:20:04;100741.06;;;25.77;33.24
55070;BME280;40967;52.070;8.596;2023-06-14T09:22:43;100739.38;;;25.92;33.13
55070;BME280;40967;52.070;8.596;2023-06-14T09:25:09;100749.91;;;26.02;33.03
55070;BME280;40967;52.070;8.596;2023-06-14T09:27:35;100743.41;;;26.14;32.90
55070;BME280;40967;52.070;8.596;2023-06-14T09:30:03;100741.88;;;26.16;32.67
55070;BME280;40967;52.070;8.596;2023-06-14T09:32:29;100743.59;;;26.24;32.75
55070;BME280;40967;52.070;8.596;2023-06-14T09:34:57;100743.88;;;26.38;32.33
55070;BME280;40967;52.070;8.596;2023-06-14T09:37:27;100741.66;;;26.47;32.03
55070;BME280;40967;52.070;8.596;2023-06-14T09:39:53;100739.31;;;26.49;31.54
55070;BME280;40967;52.070;8.596;2023-06-14T09:42:19;100758.28;;;26.44;31.92
55070;BME280;40967;52.070;8.596;2023-06-14T09:44:48;100745.66;;;26.50;31.59
55070;BME280;40967;52.070;8.596;2023-06-14T09:47:17;100739.06;;;26.58;31.58
55070;BME280;40967;52.070;8.596;2023-06-14T09:49:43;100746.44;;;26.69;31.47
55070;BME280;40967;52.070;8.596;2023-06-14T09:52:13;100746.56;;;26.76;31.67
55070;BME280;40967;52.070;8.596;2023-06-14T09:54:42;100751.50;;;26.86;31.51
55070;BME280;40967;52.070;8.596;2023-06-14T09:57:15;100747.34;;;27.00;31.72
55070;BME280;40967;52.070;8.596;2023-06-14T09:59:45;100746.59;;;27.03;30.83
55070;BME280;40967;52.070;8.596;2023-06-14T10:02:34;100743.78;;;27.03;30.92
55070;BME280;40967;52.070;8.596;2023-06-14T10:05:07;100743.03;;;27.06;30.62
55070;BME280;40967;52.070;8.596;2023-06-14T10:08:05;100741.50;;;27.08;30.75
55070;BME280;40967;52.070;8.596;2023-06-14T10:10:33;100740.25;;;27.06;30.58
55070;BME280;40967;52.070;8.596;2023-06-14T10:12:58;100750.72;;;27.12;30.78
55070;BME280;40967;52.070;8.596;2023-06-14T10:15:38;100744.88;;;27.21;30.91
55070;BME280;40967;52.070;8.596;2023-06-14T10:18:17;100742.97;;;27.28;30.32
55070;BME280;40967;52.070;8.596;2023-06-14T10:23:37;100738.97;;;27.52;30.57
55070;BME280;40967;52.070;8.596;2023-06-14T10:26:06;100738.75;;;27.64;30.32
55070;BME280;40967;52.070;8.596;2023-06-14T10:28:31;100727.34;;;27.76;30.73
55070;BME280;40967;52.070;8.596;2023-06-14T10:33:31;100730.00;;;27.95;30.63
55070;BME280;40967;52.070;8.596;2023-06-14T10:38:36;100733.06;;;28.20;30.79
55070;BME280;40967;52.070;8.596;2023-06-14T10:41:02;100730.03;;;28.35;30.35
55070;BME280;40967;52.070;8.596;2023-06-14T10:43:28;100732.66;;;28.58;30.36
55070;BME280;40967;52.070;8.596;2023-06-14T10:46:32;100728.78;;;28.73;29.69
55070;BME280;40967;52.070;8.596;2023-06-14T10:48:57;100725.31;;;28.86;29.63
55070;BME280;40967;52.070;8.596;2023-06-14T10:51:24;100731.41;;;28.99;29.57
55070;BME280;40967;52.070;8.596;2023-06-14T10:53:50;100719.53;;;29.13;29.35
55070;BME280;40967;52.070;8.596;2023-06-14T10:56:29;100723.63;;;29.26;28.65
55070;BME280;40967;52.070;8.596;2023-06-14T10:58:57;100720.78;;;29.19;28.07
55070;BME280;40967;52.070;8.596;2023-06-14T11:01:34;100720.34;;;29.13;28.35
55070;BME280;40967;52.070;8.596;2023-06-14T11:04:07;100715.91;;;29.09;28.23
55070;BME280;40967;52.070;8.596;2023-06-14T11:06:47;100714.38;;;29.18;28.39
55070;BME280;40967;52.070;8.596;2023-06-14T11:12:32;100714.50;;;29.39;27.83
55070;BME280;40967;52.070;8.596;2023-06-14T11:15:01;100706.16;;;29.43;27.84
55070;BME280;40967;52.070;8.596;2023-06-14T11:17:26;100710.53;;;29.44;27.46
55070;BME280;40967;52.070;8.596;2023-06-14T11:20:07;100714.53;;;29.43;27.88
55070;BME280;40967;52.070;8.596;2023-06-14T11:22:39;100707.31;;;29.42;27.27
55070;BME280;40967;52.070;8.596;2023-06-14T11:25:08;100709.72;;;29.40;27.10
55070;BME280;40967;52.070;8.596;2023-06-14T11:27:34;100710.50;;;29.37;27.10
55070;BME280;40967;52.070;8.596;2023-06-14T11:29:59;100698.94;;;29.35;27.14
55070;BME280;40967;52.070;8.596;2023-06-14T11:32:24;100698.91;;;29.38;27.28
55070;BME280;40967;52.070;8.596;2023-06-14T11:34:50;100705.72;;;29.37;27.00
55070;BME280;40967;52.070;8.596;2023-06-14T11:37:17;100714.91;;;29.38;27.20
55070;BME280;40967;52.070;8.596;2023-06-14T11:39:45;100700.09;;;29.34;26.91
55070;BME280;40967;52.070;8.596;2023-06-14T11:42:16;100691.72;;;29.34;27.31
55070;BME280;40967;52.070;8.596;2023-06-14T11:44:42;100709.34;;;29.45;27.13
55070;BME280;40967;52.070;8.596;2023-06-14T11:47:07;100702.59;;;29.53;27.52
55070;BME280;40967;52.070;8.596;2023-06-14T11:49:36;100701.03;;;29.59;27.26
55070;BME280;40967;52.070;8.596;2023-06-14T11:52:02;100699.00;;;29.56;27.31
55070;BME280;40967;52.070;8.596;2023-06-14T11:54:27;100682.59;;;29.51;27.36
55070;BME280;40967;52.070;8.596;2023-06-14T11:56:53;100704.28;;;29.71;27.58
55070;BME280;40967;52.070;8.596;2023-06-14T11:59:20;100698.34;;;29.87;27.46
55070;BME280;40967;52.070;8.596;2023-06-14T12:01:45;100698.00;;;29.92;27.23
55070;BME280;40967;52.070;8.596;2023-06-14T12:04:12;100691.19;;;29.93;27.12
55070;BME280;40967;52.070;8.596;2023-06-14T12:06:37;100694.00;;;30.03;27.17
55070;BME280;40967;52.070;8.596;2023-06-14T12:09:05;100698.78;;;30.03;26.95
55070;BME280;40967;52.070;8.596;2023-06-14T12:11:34;100695.56;;;29.94;27.02
55070;BME280;40967;52.070;8.596;2023-06-14T12:14:00;100682.78;;;29.93;27.10
55070;BME280;40967;52.070;8.596;2023-06-14T12:16:35;100693.63;;;30.08;27.11
55070;BME280;40967;52.070;8.596;2023-06-14T12:19:14;100694.03;;;30.10;27.25
55070;BME280;40967;52.070;8.596;2023-06-14T12:21:40;100689.63;;;30.13;27.11
55070;BME280;40967;52.070;8.596;2023-06-14T12:24:06;100699.59;;;29.96;27.27
55070;BME280;40967;52.070;8.596;2023-06-14T12:26:32;100694.72;;;29.72;27.26
55070;BME280;40967;52.070;8.596;2023-06-14T12:28:58;100691.88;;;29.65;27.38
55070;BME280;40967;52.070;8.596;2023-06-14T12:31:24;100694.72;;;29.69;27.32
55070;BME280;40967;52.070;8.596;2023-06-14T12:33:51;100699.03;;;29.66;27.10
55070;BME280;40967;52.070;8.596;2023-06-14T12:36:17;100694.53;;;29.37;27.15
55070;BME280;40967;52.070;8.596;2023-06-14T12:38:42;100686.09;;;29.27;27.08
55070;BME280;40967;52.070;8.596;2023-06-14T12:41:08;100676.84;;;29.19;26.90
55070;BME280;40967;52.070;8.596;2023-06-14T12:43:33;100684.50;;;29.26;26.85
55070;BME280;40967;52.070;8.596;2023-06-14T12:45:59;100685.25;;;29.23;26.94
55070;BME280;40967;52.070;8.596;2023-06-14T12:48:26;100682.09;;;29.24;27.05
55070;BME280;40967;52.070;8.596;2023-06-14T12:50:56;100681.69;;;29.22;27.06
55070;BME280;40967;52.070;8.596;2023-06-14T12:53:22;100696.84;;;29.21;26.67
55070;BME280;40967;52.070;8.596;2023-06-14T12:55:48;100682.06;;;29.17;27.18
55070;BME280;40967;52.070;8.596;2023-06-14T12:58:13;100682.91;;;29.28;27.07
55070;BME280;40967;52.070;8.596;2023-06-14T13:00:39;100685.78;;;29.46;27.45
55070;BME280;40967;52.070;8.596;2023-06-14T13:03:05;100691.81;;;29.51;27.50
55070;BME280;40967;52.070;8.596;2023-06-14T13:05:31;100674.25;;;29.61;27.79
55070;BME280;40967;52.070;8.596;2023-06-14T13:07:58;100683.53;;;29.69;27.50